Time;durP1;ratioP1;P1;durP2;ratioP2;P2;SDS_P1;SDS_P2;PMS_P1;PMS_P2;Temp;Humidity;BMP_temperature;BMP_pressure;BME280_temperature;BME280_humidity;BME280_pressure;Samples;Min_cycle;Max_cycle;Signal;HPM_P1;HPM_P2
2023/06/06 00:00:21;;;;;;;1.93;1.83;;;20.50;67.20;;;20.98;nan;100631.13;5016463;28;20683;-65
2023/06/06 00:02:49;;;;;;;1.90;1.80;;;20.40;67.30;;;20.95;nan;100633.31;5029268;28;20704;-66
2023/06/06 00:05:17;;;;;;;1.60;1.50;;;20.40;67.50;;;20.91;nan;100626.72;5033386;28;20624;-66
2023/06/06 00:07:45;;;;;;;2.23;2.13;;;20.40;67.80;;;20.84;nan;100635.41;5022154;28;20633;-65
2023/06/06 00:10:15;;;;;;;1.80;1.70;;;20.30;68.00;;;20.80;nan;100626.16;5025556;28;20652;-67
2023/06/06 00:12:43;;;;;;;2.23;2.13;;;20.30;68.30;;;20.75;nan;100625.84;5021855;28;21022;-66
2023/06/06 00:15:14;;;;;;;2.50;2.30;;;20.20;68.50;;;20.70;nan;100632.66;5038227;28;20644;-67
2023/06/06 00:17:44;;;;;;;1.90;1.80;;;20.20;68.80;;;20.65;nan;100635.03;5019444;28;20621;-66
2023/06/06 00:20:12;;;;;;;2.40;1.87;;;20.10;69.10;;;20.64;nan;100628.88;5012587;28;20681;-66
2023/06/06 00:22:40;;;;;;;2.40;2.20;;;20.10;69.00;;;20.61;nan;100633.72;5015380;28;20634;-66
2023/06/06 00:25:08;;;;;;;4.17;2.73;;;20.10;69.50;;;20.60;nan;100629.41;5033146;28;21148;-65
2023/06/06 00:27:36;;;;;;;2.00;1.90;;;20.10;69.90;;;20.56;nan;100634.25;5019712;28;20645;-68
2023/06/06 00:30:05;;;;;;;2.20;2.10;;;20.10;70.10;;;20.57;nan;100635.88;5022876;28;20644;-67
2023/06/06 00:32:32;;;;;;;3.23;2.20;;;20.10;70.30;;;20.56;nan;100631.59;5019170;28;20632;-66
2023/06/06 00:34:59;;;;;;;3.47;2.00;;;20.10;70.10;;;20.55;nan;100635.22;5023859;28;21022;-68
2023/06/06 00:37:26;;;;;;;6.10;2.30;;;20.00;70.20;;;20.55;nan;100637.06;5024689;28;20647;-66
2023/06/06 00:39:53;;;;;;;2.20;2.10;;;20.00;69.90;;;20.49;nan;100630.63;5032228;28;20667;-67
2023/06/06 00:42:20;;;;;;;2.33;2.23;;;20.00;70.50;;;20.43;nan;100631.31;5020183;28;20641;-66
2023/06/06 00:44:47;;;;;;;1.90;1.80;;;19.90;70.90;;;20.41;nan;100627.19;5023701;28;20620;-68
2023/06/06 00:47:15;;;;;;;2.03;1.93;;;19.90;70.80;;;20.40;nan;100625.56;5032080;28;20609;-66
2023/06/06 00:49:46;;;;;;;2.30;2.17;;;19.90;70.90;;;20.41;nan;100628.03;5031212;28;20654;-66
2023/06/06 00:52:14;;;;;;;2.40;2.20;;;19.90;71.10;;;20.41;nan;100633.31;5018112;28;20645;-66
2023/06/06 00:54:42;;;;;;;2.30;2.10;;;19.90;71.40;;;20.40;nan;100626.34;5029589;28;20609;-67
2023/06/06 00:57:09;;;;;;;3.30;2.20;;;19.90;71.50;;;20.36;nan;100624.25;5022706;28;20633;-66
2023/06/06 00:59:39;;;;;;;2.80;2.30;;;19.80;71.80;;;20.37;nan;100631.19;5016158;28;20659;-67
2023/06/06 01:02:10;;;;;;;2.50;2.30;;;19.90;72.30;;;20.33;nan;100628.06;5041369;28;20657;-67
2023/06/06 01:04:40;;;;;;;2.90;2.20;;;19.80;72.90;;;20.27;nan;100630.59;5013302;28;20621;-66
2023/06/06 01:07:09;;;;;;;1.80;1.70;;;19.80;73.40;;;20.20;nan;100632.22;5012487;28;20628;-66
2023/06/06 01:09:37;;;;;;;2.70;2.27;;;19.70;73.60;;;20.14;nan;100631.91;5022998;28;20638;-66
2023/06/06 01:12:28;;;;;;;3.03;2.03;;;19.70;74.00;;;20.07;nan;100638.06;5030939;28;20655;-66
2023/06/06 01:15:10;;;;;;;3.10;2.67;;;19.60;74.40;;;19.99;nan;100638.94;5010746;28;21169;-66
2023/06/06 01:17:41;;;;;;;1.90;1.80;;;19.50;74.80;;;19.96;nan;100631.31;5024768;28;20643;-67
2023/06/06 01:20:11;;;;;;;2.40;2.20;;;19.50;75.20;;;19.96;nan;100633.97;5031726;28;20659;-64
2023/06/06 01:22:39;;;;;;;2.30;2.10;;;19.50;75.90;;;19.97;nan;100637.47;5024458;28;21385;-68
2023/06/06 01:25:07;;;;;;;2.10;2.00;;;19.50;76.30;;;19.98;nan;100631.16;5025356;28;20618;-67
2023/06/06 01:27:35;;;;;;;3.20;2.00;;;19.50;76.60;;;19.98;nan;100633.78;5010710;28;20625;-68
2023/06/06 01:30:06;;;;;;;2.50;2.30;;;19.50;77.10;;;19.97;nan;100633.00;5009049;28;20626;-66
2023/06/06 01:32:51;;;;;;;2.67;2.43;;;19.50;77.50;;;19.94;nan;100635.13;5012787;28;20644;-67
2023/06/06 01:35:40;;;;;;;2.20;2.10;;;19.50;78.10;;;19.92;nan;100637.97;5012041;28;20700;-67
2023/06/06 01:38:23;;;;;;;2.10;1.90;;;19.50;78.60;;;19.92;nan;100640.59;5022434;28;20628;-68
2023/06/06 01:40:55;;;;;;;1.93;1.80;;;19.50;78.20;;;19.93;nan;100639.59;5017894;28;20677;-67
2023/06/06 01:43:25;;;;;;;3.47;2.20;;;19.50;78.30;;;19.93;nan;100647.53;5019201;28;20617;-67
2023/06/06 01:45:54;;;;;;;2.80;2.20;;;19.40;78.40;;;19.89;nan;100642.78;5016581;28;20643;-67
2023/06/06 01:48:24;;;;;;;2.47;2.37;;;19.40;78.80;;;19.85;nan;100647.56;5011027;28;20629;-68
2023/06/06 01:50:51;;;;;;;2.20;2.10;;;19.40;79.10;;;19.82;nan;100652.38;5017035;28;20676;-68
2023/06/06 01:53:19;;;;;;;2.00;1.90;;;19.40;79.60;;;19.77;nan;100654.72;5010920;28;20645;-67
2023/06/06 01:55:48;;;;;;;2.23;2.00;;;19.30;79.60;;;19.68;nan;100655.72;5007847;28;20653;-67
2023/06/06 01:58:16;;;;;;;2.60;2.40;;;19.20;80.10;;;19.66;nan;100653.22;5021003;28;20642;-68
2023/06/06 02:00:43;;;;;;;3.43;2.07;;;19.20;80.70;;;19.68;nan;100655.72;5016945;28;20684;-67
2023/06/06 02:03:11;;;;;;;2.23;2.10;;;19.20;80.90;;;19.69;nan;100657.38;5019214;28;21207;-66
2023/06/06 02:05:39;;;;;;;3.00;2.70;;;19.20;81.30;;;19.67;nan;100654.06;5030933;28;21168;-66
2023/06/06 02:08:06;;;;;;;2.30;2.20;;;19.20;81.70;;;19.66;nan;100653.22;5031724;28;20640;-63
2023/06/06 02:10:33;;;;;;;2.43;2.23;;;19.20;82.40;;;19.66;nan;100649.75;5027117;28;20654;-66
2023/06/06 02:13:00;;;;;;;2.30;2.10;;;19.20;82.70;;;19.67;nan;100651.44;5023346;28;20697;-67
2023/06/06 02:15:29;;;;;;;2.70;2.50;;;19.20;83.40;;;19.64;nan;100659.69;5027117;28;20645;-65
2023/06/06 02:17:56;;;;;;;2.80;2.43;;;19.20;84.00;;;19.63;nan;100656.25;5027602;28;20690;-65
2023/06/06 02:20:24;;;;;;;2.33;2.20;;;19.20;84.90;;;19.64;nan;100663.16;5016389;28;21056;-66
2023/06/06 02:22:51;;;;;;;2.37;2.27;;;19.20;85.60;;;19.63;nan;100664.19;5025827;28;21249;-67
2023/06/06 02:25:19;;;;;;;2.60;2.40;;;19.20;86.80;;;19.59;nan;100654.91;5031014;28;21009;-66
2023/06/06 02:27:48;;;;;;;3.43;2.33;;;19.10;87.20;;;19.56;nan;100657.06;5026051;28;20636;-66
2023/06/06 02:30:15;;;;;;;2.70;2.50;;;19.10;88.00;;;19.56;nan;100657.88;5030940;28;20655;-66
2023/06/06 02:32:42;;;;;;;2.90;2.60;;;19.10;89.30;;;19.51;nan;100660.19;5022341;28;20644;-66
2023/06/06 02:35:09;;;;;;;2.47;2.27;;;19.10;89.80;;;19.53;nan;100658.22;5011465;28;21212;-65
2023/06/06 02:37:36;;;;;;;2.80;2.60;;;19.00;89.30;;;19.48;nan;100657.91;5014250;28;20645;-66
2023/06/06 02:40:08;;;;;;;3.80;2.73;;;19.00;89.80;;;19.45;nan;100668.81;5025796;28;20687;-67
2023/06/06 02:42:38;;;;;;;3.03;2.33;;;19.00;89.80;;;19.43;nan;100670.78;5022850;28;20638;-65
2023/06/06 02:45:10;;;;;;;2.00;1.90;;;19.00;90.00;;;19.43;nan;100677.91;5015189;28;20631;-64
2023/06/06 02:47:37;;;;;;;2.70;2.50;;;19.00;90.20;;;19.41;nan;100670.13;5017087;28;20666;-66
2023/06/06 02:50:06;;;;;;;2.23;2.10;;;18.90;90.50;;;19.39;nan;100664.19;5029378;28;20632;-66
2023/06/06 02:52:33;;;;;;;3.13;2.83;;;18.90;90.50;;;19.39;nan;100664.19;5027894;28;20649;-66
2023/06/06 02:55:00;;;;;;;2.60;2.40;;;19.00;90.90;;;19.36;nan;100671.66;5025155;28;20637;-66
2023/06/06 02:57:29;;;;;;;2.73;2.53;;;18.90;91.30;;;19.34;nan;100669.13;5015247;28;20732;-64
2023/06/06 02:59:58;;;;;;;3.60;3.30;;;18.90;91.40;;;19.32;nan;100671.09;5017149;28;20670;-64
2023/06/06 03:02:25;;;;;;;4.37;3.30;;;18.90;91.70;;;19.31;nan;100669.47;5028908;28;21144;-65
2023/06/06 03:04:52;;;;;;;3.30;2.83;;;18.80;91.90;;;19.28;nan;100672.41;5028906;28;20637;-65
2023/06/06 03:07:20;;;;;;;2.53;2.40;;;18.80;92.10;;;19.24;nan;100673.75;5028926;28;20613;-66
2023/06/06 03:09:47;;;;;;;3.13;2.87;;;18.80;92.70;;;19.21;nan;100676.69;5026914;28;21273;-65
2023/06/06 03:12:14;;;;;;;2.67;2.47;;;18.80;92.80;;;19.20;nan;100675.91;5018627;28;20617;-66
2023/06/06 03:14:41;;;;;;;3.03;2.67;;;18.80;92.90;;;19.22;nan;100686.31;5027791;28;20617;-66
2023/06/06 03:17:22;;;;;;;3.00;2.47;;;18.70;93.20;;;19.21;nan;100679.34;5027769;28;20819;-67
2023/06/06 03:19:49;;;;;;;3.17;2.97;;;18.70;93.60;;;19.19;nan;100686.63;5028881;28;20698;-66
2023/06/06 03:22:19;;;;;;;5.03;2.93;;;18.70;93.80;;;19.17;nan;100692.09;5028672;28;20633;-66
2023/06/06 03:24:46;;;;;;;3.20;2.90;;;18.70;94.00;;;19.16;nan;100685.16;5030107;28;20616;-67
2023/06/06 03:27:13;;;;;;;2.53;2.33;;;18.70;94.20;;;19.18;nan;100690.28;5026199;28;20632;-68
2023/06/06 03:29:40;;;;;;;2.57;2.27;;;18.70;94.50;;;19.18;nan;100693.75;5031138;28;20612;-66
2023/06/06 03:32:08;;;;;;;2.87;2.60;;;18.70;94.70;;;19.17;nan;100688.59;5015082;28;20675;-68
2023/06/06 03:34:35;;;;;;;3.53;3.07;;;18.70;94.80;;;19.18;nan;100696.41;5025501;28;20623;-66
2023/06/06 03:37:02;;;;;;;2.80;2.60;;;18.70;95.50;;;19.17;nan;100686.78;5028113;28;20613;-68
2023/06/06 03:39:29;;;;;;;3.00;2.73;;;18.70;95.70;;;19.18;nan;100685.00;5022886;28;20636;-66
2023/06/06 03:41:59;;;;;;;6.00;2.97;;;18.70;95.90;;;19.15;nan;100691.44;5021623;28;20664;-66
2023/06/06 03:44:28;;;;;;;3.30;2.97;;;18.70;96.00;;;19.10;nan;100693.72;5018160;28;20631;-68
2023/06/06 03:46:57;;;;;;;5.30;2.97;;;18.70;96.10;;;19.05;nan;100700.50;5028571;28;20682;-67
2023/06/06 03:49:24;;;;;;;6.37;2.87;;;18.60;96.50;;;19.02;nan;100703.47;5024505;28;20635;-67
2023/06/06 03:51:54;;;;;;;7.73;3.03;;;18.50;96.70;;;19.07;nan;100695.88;5029520;28;21761;-68
2023/06/06 03:54:22;;;;;;;4.43;3.20;;;18.60;97.00;;;19.11;nan;100699.84;5012294;28;20645;-67
2023/06/06 03:56:54;;;;;;;3.43;3.13;;;18.70;97.10;;;19.16;nan;100700.19;5019936;28;20629;-67
2023/06/06 03:59:23;;;;;;;3.37;2.73;;;18.70;97.40;;;19.16;nan;100702.84;5028074;28;21016;-67
2023/06/06 04:01:53;;;;;;;2.93;2.70;;;18.70;97.60;;;19.17;nan;100694.72;5030371;28;20656;-67
2023/06/06 04:04:20;;;;;;;3.33;3.03;;;18.70;98.30;;;19.17;nan;100704.47;5024210;28;20651;-69
2023/06/06 04:07:14;;;;;;;4.40;2.83;;;18.70;98.20;;;19.18;nan;100711.44;5019487;28;20633;-68
2023/06/06 04:09:43;;;;;;;3.13;2.93;;;18.70;98.10;;;19.20;nan;100704.16;5025122;28;21200;-68
2023/06/06 04:12:12;;;;;;;3.20;2.90;;;18.70;98.10;;;19.27;nan;100705.16;5023936;28;20672;-68
2023/06/06 04:14:39;;;;;;;3.00;2.37;;;18.80;98.10;;;19.40;nan;100704.72;5023369;28;21227;-68
2023/06/06 04:17:07;;;;;;;4.10;3.40;;;18.90;98.10;;;19.47;nan;100703.88;5027473;28;21164;-66
2023/06/06 04:19:36;;;;;;;3.10;2.67;;;19.00;98.00;;;19.53;nan;100702.41;5009572;28;20637;-66
2023/06/06 04:22:05;;;;;;;3.97;2.90;;;19.10;97.80;;;19.61;nan;100705.03;5012210;28;20668;-66
2023/06/06 04:24:35;;;;;;;2.77;2.57;;;19.20;97.60;;;19.70;nan;100710.16;5028617;28;20613;-67
2023/06/06 04:27:03;;;;;;;3.00;2.37;;;19.20;97.60;;;19.77;nan;100697.91;5025826;28;20617;-67
2023/06/06 04:29:36;;;;;;;2.53;2.33;;;19.30;97.60;;;19.86;nan;100714.59;5023049;28;20621;-67
2023/06/06 04:32:04;;;;;;;3.00;2.80;;;19.40;97.70;;;19.96;nan;100712.59;5031983;28;20713;-67
2023/06/06 04:34:31;;;;;;;2.53;2.33;;;19.50;97.60;;;20.05;nan;100707.13;5023840;28;20639;-67
2023/06/06 04:37:04;;;;;;;2.73;2.53;;;19.60;97.50;;;20.11;nan;100717.03;5021558;28;20652;-69
2023/06/06 04:39:36;;;;;;;3.50;3.00;;;19.70;97.20;;;20.24;nan;100728.94;5022566;28;20623;-67
2023/06/06 04:42:05;;;;;;;6.53;2.70;;;19.80;96.70;;;20.35;nan;100720.63;5030547;28;20667;-67
2023/06/06 04:44:41;;;;;;;3.27;2.70;;;19.90;96.30;;;20.39;nan;100725.44;5026950;28;21180;-67
2023/06/06 04:47:10;;;;;;;7.07;3.03;;;20.00;96.20;;;20.46;nan;100722.91;5014748;28;20633;-67
2023/06/06 04:49:39;;;;;;;3.13;2.77;;;20.00;95.60;;;20.51;nan;100734.66;5015961;28;20637;-67
2023/06/06 04:52:12;;;;;;;3.33;3.03;;;20.10;95.40;;;20.63;nan;100724.50;5027465;28;20675;-67
2023/06/06 04:54:41;;;;;;;2.70;2.50;;;20.20;95.20;;;20.75;nan;100720.47;5031146;28;20655;-67
2023/06/06 04:57:15;;;;;;;6.90;2.43;;;20.30;94.80;;;20.85;nan;100715.75;5031592;28;20642;-67
2023/06/06 04:59:50;;;;;;;4.00;3.60;;;20.40;94.70;;;20.98;nan;100723.16;5033482;28;20637;-67
2023/06/06 05:02:22;;;;;;;3.07;2.67;;;20.50;94.30;;;21.08;nan;100724.63;5022391;28;20644;-67
2023/06/06 05:04:55;;;;;;;2.57;2.40;;;20.70;94.00;;;21.23;nan;100728.16;5033145;28;20593;-66
2023/06/06 05:07:23;;;;;;;2.80;2.60;;;20.70;93.70;;;21.42;nan;100725.03;5032144;28;21032;-67
2023/06/06 05:09:52;;;;;;;2.50;2.30;;;20.90;93.20;;;21.49;nan;100725.13;5031422;28;20633;-65
2023/06/06 05:12:24;;;;;;;6.40;4.60;;;21.10;92.80;;;21.61;nan;100719.22;5033468;28;20599;-67
2023/06/06 05:14:51;;;;;;;6.57;3.70;;;21.20;92.70;;;21.76;nan;100726.41;5029272;28;20715;-68
2023/06/06 05:17:20;;;;;;;3.80;3.20;;;21.30;92.30;;;21.80;nan;100723.22;5025603;28;20635;-71
2023/06/06 05:19:47;;;;;;;3.57;3.17;;;21.30;92.20;;;21.81;nan;100729.34;5030095;28;21196;-67
2023/06/06 05:22:15;;;;;;;5.70;3.90;;;21.40;92.10;;;21.83;nan;100719.44;5032425;28;20622;-68
2023/06/06 05:24:43;;;;;;;3.97;3.40;;;21.40;92.10;;;21.91;nan;100725.47;5014272;28;20633;-69
2023/06/06 05:27:10;;;;;;;4.00;3.23;;;21.50;92.00;;;22.08;nan;100734.91;5014312;28;21223;-69
2023/06/06 05:29:37;;;;;;;5.43;3.27;;;21.60;91.80;;;22.26;nan;100726.59;5031928;28;21159;-67
2023/06/06 05:32:08;;;;;;;3.00;2.80;;;21.70;91.50;;;22.47;nan;100732.00;5030070;28;20760;-66
2023/06/06 05:34:35;;;;;;;2.93;2.63;;;21.90;91.20;;;22.61;nan;100733.03;5021033;28;20628;-67
2023/06/06 05:37:03;;;;;;;8.40;3.40;;;22.10;91.00;;;22.71;nan;100738.88;5025663;28;20628;-65
2023/06/06 05:39:30;;;;;;;3.87;3.53;;;22.30;90.90;;;22.81;nan;100731.41;5025456;28;21199;-68
2023/06/06 05:41:57;;;;;;;4.87;3.63;;;22.30;90.70;;;22.97;nan;100728.56;5024209;28;21235;-66
2023/06/06 05:44:24;;;;;;;6.30;3.70;;;22.50;90.50;;;23.21;nan;100736.19;5018277;28;21046;-69
2023/06/06 05:46:55;;;;;;;9.17;3.00;;;22.70;90.20;;;23.38;nan;100732.31;5027280;28;20626;-65
2023/06/06 05:49:23;;;;;;;4.13;3.67;;;22.80;90.00;;;23.62;nan;100733.72;5024238;28;20629;-67
2023/06/06 05:51:50;;;;;;;2.70;2.60;;;23.10;89.20;;;23.84;nan;100732.69;5026893;28;20691;-67
2023/06/06 05:54:17;;;;;;;4.50;3.70;;;23.30;88.60;;;24.07;nan;100732.44;5028298;28;21222;-68
2023/06/06 05:56:45;;;;;;;3.53;3.23;;;23.50;87.80;;;24.27;nan;100739.56;5025452;28;20634;-69
2023/06/06 05:59:13;;;;;;;7.67;4.27;;;23.70;86.80;;;24.50;nan;100739.28;5029203;28;20631;-67
2023/06/06 06:01:42;;;;;;;5.23;4.00;;;23.90;86.00;;;24.68;nan;100743.03;5020301;28;20958;-67
2023/06/06 06:04:09;;;;;;;4.43;4.03;;;24.20;84.90;;;24.91;nan;100742.78;5031747;28;21200;-67
2023/06/06 06:06:37;;;;;;;3.70;3.47;;;24.40;83.90;;;25.13;nan;100743.47;5025658;28;21047;-68
2023/06/06 06:09:05;;;;;;;4.33;3.93;;;24.60;82.90;;;25.30;nan;100752.72;5028556;28;21000;-67
2023/06/06 06:11:32;;;;;;;5.13;4.63;;;24.80;82.70;;;25.59;nan;100749.72;5018295;28;20664;-68
2023/06/06 06:13:59;;;;;;;3.97;3.67;;;25.00;81.60;;;25.81;nan;100750.34;5012721;28;20656;-64
2023/06/06 06:16:26;;;;;;;3.10;2.90;;;25.20;80.50;;;26.09;nan;100754.44;5010351;28;20656;-66
2023/06/06 06:18:53;;;;;;;4.53;3.40;;;25.50;79.90;;;26.47;nan;100748.41;5009703;28;20641;-68
2023/06/06 06:21:21;;;;;;;4.97;4.23;;;25.80;79.20;;;26.90;nan;100752.16;5027478;28;21228;-69
2023/06/06 06:23:49;;;;;;;4.00;3.70;;;26.30;78.00;;;27.25;nan;100757.97;5022606;28;21206;-67
2023/06/06 06:26:17;;;;;;;4.70;3.83;;;26.60;76.30;;;27.60;nan;100767.22;5029585;28;20612;-68
2023/06/06 06:28:44;;;;;;;4.10;3.70;;;27.00;75.50;;;28.03;nan;100764.63;5009561;28;20633;-67
2023/06/06 06:31:12;;;;;;;3.70;3.40;;;27.40;74.40;;;28.54;nan;100767.78;5010437;28;20673;-69
2023/06/06 06:33:39;;;;;;;2.70;2.47;;;27.90;73.00;;;28.97;nan;100770.41;5013260;28;21270;-71
2023/06/06 06:36:06;;;;;;;3.03;2.77;;;28.40;71.70;;;29.43;nan;100769.78;5018184;28;20632;-66
2023/06/06 06:38:36;;;;;;;3.80;3.50;;;28.80;69.90;;;29.84;nan;100775.16;5016576;28;20659;-68
2023/06/06 06:41:03;;;;;;;4.03;3.63;;;29.30;68.30;;;30.45;nan;100761.25;5019269;28;21267;-68
2023/06/06 06:43:30;;;;;;;3.20;2.90;;;29.80;67.00;;;30.86;nan;100763.72;5016557;28;20632;-68
2023/06/06 06:46:00;;;;;;;3.33;3.03;;;30.30;65.40;;;31.34;nan;100771.38;5022688;28;20628;-69
2023/06/06 06:48:27;;;;;;;3.93;3.57;;;30.80;63.90;;;31.58;nan;100764.00;5021369;28;20662;-67
2023/06/06 06:50:55;;;;;;;3.23;3.00;;;31.10;62.20;;;32.14;nan;100766.53;5015870;28;21105;-68
2023/06/06 06:53:25;;;;;;;3.13;2.80;;;31.60;61.50;;;32.50;nan;100771.38;5033139;28;20648;-68
2023/06/06 06:55:52;;;;;;;3.97;3.57;;;32.10;60.00;;;32.77;nan;100766.03;5030013;28;20604;-67
2023/06/06 06:58:25;;;;;;;3.00;2.90;;;32.40;58.70;;;33.03;nan;100775.28;5020191;28;20633;-69
2023/06/06 07:00:56;;;;;;;3.93;3.63;;;32.60;58.30;;;33.58;nan;100760.41;5030471;28;20671;-68
2023/06/06 07:03:23;;;;;;;3.60;3.30;;;33.10;57.30;;;34.19;nan;100775.25;5027500;28;20633;-67
2023/06/06 07:05:50;;;;;;;5.17;3.73;;;33.70;56.30;;;34.53;nan;100764.88;5011283;28;20589;-68
2023/06/06 07:08:17;;;;;;;3.47;3.27;;;34.00;55.40;;;35.07;nan;100771.59;5024525;28;20686;-70
2023/06/06 07:10:44;;;;;;;3.63;3.33;;;34.50;55.00;;;35.56;nan;100774.69;5019883;28;20671;-68
2023/06/06 07:13:15;;;;;;;7.50;4.20;;;35.00;54.20;;;35.94;nan;100777.91;5024078;28;20632;-69
2023/06/06 07:15:42;;;;;;;3.80;3.50;;;35.40;53.40;;;36.48;nan;100777.00;5025003;28;21176;-70
2023/06/06 07:18:09;;;;;;;3.60;3.30;;;35.80;52.70;;;37.00;nan;100775.69;5019524;28;21200;-69
2023/06/06 07:20:36;;;;;;;4.03;3.63;;;36.40;51.90;;;37.28;nan;100778.50;5013381;28;21064;-70
2023/06/06 07:23:05;;;;;;;3.77;3.43;;;36.80;51.10;;;37.76;nan;100781.44;5027221;28;20706;-66
2023/06/06 07:25:34;;;;;;;3.83;3.53;;;37.20;50.30;;;38.42;nan;100776.94;5010053;28;20676;-69
2023/06/06 07:28:02;;;;;;;4.10;3.90;;;37.70;49.40;;;38.80;nan;100775.16;5026518;28;20614;-70
2023/06/06 07:30:28;;;;;;;4.30;4.00;;;38.20;48.80;;;38.89;nan;100784.28;5019751;28;21057;-69
2023/06/06 07:32:55;;;;;;;4.00;3.70;;;38.40;48.00;;;38.75;nan;100777.94;5009682;28;21170;-69
2023/06/06 07:35:24;;;;;;;3.27;3.07;;;38.50;47.60;;;38.82;nan;100781.13;5011460;28;20649;-71
2023/06/06 07:37:51;;;;;;;4.87;4.47;;;38.60;46.90;;;39.46;nan;100772.28;5016906;28;20629;-70
2023/06/06 07:40:18;;;;;;;3.67;3.37;;;38.90;46.70;;;39.95;nan;100772.53;5017186;28;20666;-69
2023/06/06 07:42:47;;;;;;;3.90;3.50;;;39.40;46.20;;;40.16;nan;100786.66;5015502;28;20656;-73
2023/06/06 07:45:14;;;;;;;3.80;3.57;;;39.70;45.60;;;40.09;nan;100781.59;5024860;28;20636;-72
2023/06/06 07:47:41;;;;;;;3.60;3.40;;;39.90;45.10;;;40.36;nan;100779.97;5010971;28;20672;-69
2023/06/06 07:50:09;;;;;;;4.90;4.50;;;40.10;44.90;;;40.68;nan;100782.59;5025884;28;20651;-68
2023/06/06 07:52:39;;;;;;;6.23;5.60;;;40.30;44.10;;;40.22;nan;100777.22;5024949;28;20689;-67
2023/06/06 07:55:07;;;;;;;4.00;3.80;;;40.10;43.30;;;40.28;nan;100770.53;5016715;28;20640;-72
2023/06/06 07:57:34;;;;;;;3.30;3.10;;;39.90;43.30;;;40.48;nan;100777.56;5013518;28;20659;-72
2023/06/06 08:00:06;;;;;;;4.17;3.87;;;40.00;43.40;;;40.78;nan;100772.25;5019918;28;20649;-72
2023/06/06 08:02:33;;;;;;;3.40;2.97;;;40.40;43.10;;;40.75;nan;100778.34;5025380;28;20675;-71
2023/06/06 08:05:00;;;;;;;3.67;3.47;;;40.60;42.70;;;40.59;nan;100774.31;5018488;28;20656;-70
2023/06/06 08:07:28;;;;;;;4.20;4.00;;;40.50;42.40;;;39.48;nan;100770.88;5018765;28;20620;-72
2023/06/06 08:09:57;;;;;;;4.20;3.90;;;39.70;42.80;;;39.69;nan;100776.81;5032022;28;20645;-73
2023/06/06 08:12:24;;;;;;;3.67;3.40;;;39.60;43.10;;;40.04;nan;100780.88;5018810;28;20632;-68
2023/06/06 08:14:51;;;;;;;3.13;2.93;;;39.80;43.30;;;40.46;nan;100769.69;5030360;28;20628;-72
2023/06/06 08:17:18;;;;;;;3.30;3.10;;;40.20;42.60;;;40.52;nan;100768.44;5031811;28;20632;-69
2023/06/06 08:19:46;;;;;;;3.27;3.17;;;40.40;42.30;;;40.83;nan;100763.97;5028557;28;20636;-73
2023/06/06 08:22:14;;;;;;;3.60;3.40;;;40.60;42.50;;;41.14;nan;100763.25;5022144;28;20680;-68
2023/06/06 08:24:42;;;;;;;2.90;2.80;;;41.00;42.10;;;41.37;nan;100770.38;5030604;28;20617;-70
2023/06/06 08:27:10;;;;;;;3.83;3.40;;;41.20;41.70;;;41.61;nan;100768.13;5021622;28;21173;-70
2023/06/06 08:29:37;;;;;;;4.10;3.90;;;41.50;41.50;;;41.62;nan;100762.34;5033709;28;20628;-69
2023/06/06 08:32:08;;;;;;;3.70;3.50;;;41.50;41.10;;;41.73;nan;100769.22;5015239;28;20672;-68
2023/06/06 08:34:35;;;;;;;3.30;3.20;;;41.50;41.00;;;41.67;nan;100756.78;5021831;28;20996;-70
2023/06/06 08:37:04;;;;;;;3.43;3.23;;;41.50;40.80;;;41.32;nan;100751.34;5013433;28;21017;-71
2023/06/06 08:39:30;;;;;;;3.40;3.20;;;41.30;40.70;;;41.36;nan;100755.09;5014381;28;20608;-71
2023/06/06 08:41:58;;;;;;;3.47;3.27;;;41.30;40.80;;;40.91;nan;100760.47;5015310;28;20719;-70
2023/06/06 08:44:25;;;;;;;3.07;2.97;;;41.10;40.60;;;41.17;nan;100759.91;5019656;28;20613;-70
2023/06/06 08:46:57;;;;;;;2.90;2.80;;;41.10;40.70;;;41.58;nan;100766.81;5010865;28;20641;-73
2023/06/06 08:49:28;;;;;;;2.87;2.73;;;41.40;40.80;;;41.81;nan;100764.09;5015613;28;20663;-71
2023/06/06 08:51:56;;;;;;;2.97;2.77;;;41.80;40.50;;;42.02;nan;100757.72;5021605;28;20660;-71
2023/06/06 08:54:25;;;;;;;2.67;2.57;;;42.00;40.30;;;42.16;nan;100763.97;5037537;28;20635;-70
2023/06/06 08:56:54;;;;;;;3.30;3.20;;;42.10;40.50;;;42.80;nan;100770.59;5027367;28;20628;-68
2023/06/06 08:59:21;;;;;;;3.20;3.10;;;42.60;40.20;;;43.25;nan;100762.91;5012272;28;20629;-71
2023/06/06 09:01:51;;;;;;;2.60;2.50;;;43.10;39.40;;;43.46;nan;100769.34;5030728;28;21044;-70
2023/06/06 09:04:19;;;;;;;2.57;2.37;;;43.30;38.80;;;43.16;nan;100764.81;5029998;28;20632;-70
2023/06/06 09:06:46;;;;;;;2.43;2.33;;;43.30;38.10;;;42.80;nan;100773.34;5029998;28;20630;-69
2023/06/06 09:09:14;;;;;;;3.20;3.03;;;42.90;38.40;;;42.99;nan;100767.56;5012355;28;20678;-70
2023/06/06 09:11:41;;;;;;;2.93;2.83;;;42.80;38.80;;;43.27;nan;100760.63;5013092;28;20672;-73
2023/06/06 09:14:08;;;;;;;2.73;2.57;;;43.10;38.60;;;43.44;nan;100766.13;5030487;28;21007;-70
2023/06/06 09:16:35;;;;;;;2.47;2.37;;;43.30;38.40;;;43.66;nan;100757.66;5030797;28;20992;-71
2023/06/06 09:19:03;;;;;;;2.40;2.30;;;43.60;38.30;;;44.25;nan;100757.78;5015298;28;20644;-68
2023/06/06 09:21:34;;;;;;;2.80;2.70;;;44.10;38.10;;;44.58;nan;100764.25;5030803;28;21238;-69
2023/06/06 09:24:01;;;;;;;2.70;2.60;;;44.40;38.00;;;44.69;nan;100768.22;5025056;28;20611;-68
2023/06/06 09:26:30;;;;;;;2.80;2.70;;;44.60;37.40;;;44.74;nan;100759.78;5027576;28;20648;-68
2023/06/06 09:29:08;;;;;;;3.00;2.90;;;44.70;37.20;;;45.12;nan;100757.72;5024597;28;20624;-69
2023/06/06 09:31:38;;;;;;;3.37;2.80;;;45.00;37.10;;;45.24;nan;100751.47;5025257;28;20660;-68
2023/06/06 09:34:09;;;;;;;3.60;3.40;;;45.20;37.10;;;44.70;nan;100758.03;5021423;28;21492;-69
2023/06/06 09:36:43;;;;;;;2.80;2.60;;;45.00;36.80;;;44.05;nan;100751.09;5018131;28;20629;-69
2023/06/06 09:39:12;;;;;;;3.27;3.17;;;44.60;36.90;;;43.88;nan;100756.63;5029265;28;20685;-68
2023/06/06 09:41:45;;;;;;;3.93;3.73;;;44.10;37.30;;;43.81;nan;100759.09;5029579;28;20675;-71
2023/06/06 09:44:23;;;;;;;2.50;2.40;;;44.00;37.50;;;43.59;nan;100751.84;5015891;28;20659;-68
2023/06/06 09:47:13;;;;;;;4.30;3.50;;;43.90;38.00;;;43.71;nan;100754.75;5020388;28;20636;-66
2023/06/06 09:49:40;;;;;;;3.20;3.00;;;43.80;37.30;;;43.82;nan;100749.69;5024685;28;20631;-69
2023/06/06 09:52:13;;;;;;;3.20;3.00;;;43.90;37.40;;;43.77;nan;100747.94;5017401;28;20674;-68
2023/06/06 09:54:43;;;;;;;3.43;3.33;;;43.80;37.20;;;43.24;nan;100747.50;5030892;28;20659;-68
2023/06/06 09:57:14;;;;;;;3.80;3.60;;;43.40;37.60;;;43.05;nan;100736.88;5015535;28;20647;-67
2023/06/06 09:59:44;;;;;;;3.10;3.00;;;43.00;38.20;;;41.79;nan;100737.00;5026890;28;20640;-70
2023/06/06 10:02:13;;;;;;;3.23;3.03;;;41.90;38.80;;;41.38;nan;100730.94;5024560;28;20680;-69
2023/06/06 10:04:41;;;;;;;3.50;3.30;;;41.20;39.20;;;40.84;nan;100726.47;5029463;28;20734;-67
2023/06/06 10:07:09;;;;;;;2.77;2.67;;;40.50;40.00;;;39.82;nan;100720.59;5020996;28;21200;-69
2023/06/06 10:09:37;;;;;;;3.67;3.47;;;39.60;40.40;;;39.26;nan;100729.72;5023250;28;20633;-68
2023/06/06 10:12:05;;;;;;;3.37;3.17;;;38.50;40.70;;;38.43;nan;100723.25;5022827;28;21247;-67
2023/06/06 10:14:32;;;;;;;2.57;2.37;;;37.90;41.10;;;37.13;nan;100721.47;5022661;28;21015;-70
2023/06/06 10:17:01;;;;;;;2.43;2.23;;;36.90;41.90;;;36.30;nan;100714.28;5029032;28;20589;-68
2023/06/06 10:19:30;;;;;;;2.57;2.43;;;35.90;42.60;;;35.78;nan;100718.19;5011837;28;20653;-72
2023/06/06 10:21:58;;;;;;;3.80;3.50;;;35.30;43.40;;;35.15;nan;100716.00;5010558;28;20676;-66
2023/06/06 10:24:26;;;;;;;3.30;2.93;;;34.60;44.40;;;34.69;nan;100704.22;5026442;28;20648;-69
2023/06/06 10:27:23;;;;;;;3.80;3.50;;;34.20;44.60;;;34.16;nan;100709.97;5029045;28;20682;-68
2023/06/06 10:30:09;;;;;;;3.73;3.47;;;33.70;46.20;;;33.77;nan;100712.16;5019134;28;20628;-68
2023/06/06 10:33:13;;;;;;;3.00;2.80;;;33.30;45.60;;;33.53;nan;100705.47;5028432;28;20698;-69